createdAt,value
2023-06-19T00:04:07.857Z,99813.09
2023-06-19T00:09:04.732Z,99811.28
2023-06-19T00:14:02.092Z,99808.38
2023-06-19T00:18:58.826Z,99800.66
2023-06-19T00:23:55.360Z,99792.13
2023-06-19T00:28:54.900Z,99788.38
2023-06-19T00:33:51.695Z,99772.16
2023-06-19T00:38:49.167Z,99773.38
2023-06-19T00:43:45.766Z,99757.78
2023-06-19T00:48:42.497Z,99741.50
2023-06-19T00:53:39.467Z,99731.72
2023-06-19T00:58:36.345Z,99726.53
2023-06-19T01:03:32.841Z,99718.81
2023-06-19T01:09:03.604Z,99711.50
2023-06-19T01:14:04.240Z,99705.47
2023-06-19T01:19:00.921Z,99731.28
2023-06-19T01:23:57.402Z,99732.13
2023-06-19T01:28:55.739Z,99736.94
2023-06-19T01:33:54.353Z,99740.28
2023-06-19T01:38:52.136Z,99731.91
2023-06-19T01:43:49.651Z,99739.59
2023-06-19T01:48:46.237Z,99740.88
2023-06-19T01:53:42.700Z,99737.97
2023-06-19T01:58:39.157Z,99734.22
2023-06-19T02:03:35.613Z,99730.88
2023-06-19T02:08:32.077Z,99739.84
2023-06-19T02:13:28.506Z,99725.00
2023-06-19T02:18:26.003Z,99731.00
2023-06-19T02:23:22.448Z,99727.66
2023-06-19T02:28:18.863Z,99723.06
2023-06-19T02:33:15.386Z,99723.19
2023-06-19T02:38:13.499Z,99726.53
2023-06-19T02:43:09.910Z,99721.56
2023-06-19T02:48:06.421Z,99718.25
2023-06-19T02:53:02.950Z,99711.16
2023-06-19T02:57:59.481Z,99712.69
2023-06-19T03:02:55.978Z,99717.41
2023-06-19T03:07:52.807Z,99715.09
2023-06-19T03:12:49.276Z,99715.56
2023-06-19T03:17:45.857Z,99716.63
2023-06-19T03:22:42.976Z,99719.69
2023-06-19T03:27:39.501Z,99728.53
2023-06-19T03:32:36.092Z,99729.41
2023-06-19T03:37:33.804Z,99738.31
2023-06-19T03:42:30.326Z,99740.66
2023-06-19T03:47:26.829Z,99742.81
2023-06-19T03:52:23.267Z,99753.19
2023-06-19T03:57:19.700Z,99745.88
2023-06-19T04:02:16.170Z,99748.66
2023-06-19T04:07:12.640Z,99753.31
2023-06-19T04:12:09.665Z,99751.97
2023-06-19T04:17:06.555Z,99755.56
2023-06-19T04:22:03.020Z,99766.31
2023-06-19T04:26:59.592Z,99771.81
2023-06-19T04:31:56.049Z,99773.28
2023-06-19T04:36:53.050Z,99774.09
2023-06-19T04:41:49.705Z,99778.72
2023-06-19T04:46:46.294Z,99778.75
2023-06-19T04:51:43.074Z,99783.75
2023-06-19T04:56:40.232Z,99791.91
2023-06-19T05:01:36.767Z,99800.25
2023-06-19T05:06:33.340Z,99804.44
2023-06-19T05:11:31.270Z,99807.16
2023-06-19T05:16:27.853Z,99823.41
2023-06-19T05:21:24.368Z,99834.47
2023-06-19T05:26:21.363Z,99840.06
2023-06-19T05:31:19.340Z,99841.13
2023-06-19T05:36:16.000Z,99853.44
2023-06-19T05:41:14.712Z,99847.19
2023-06-19T05:46:12.019Z,99858.03
2023-06-19T05:51:08.455Z,99859.28
2023-06-19T05:56:04.968Z,99860.91
2023-06-19T06:01:01.451Z,99863.00
2023-06-19T06:06:03.998Z,99881.78
2023-06-19T06:11:00.557Z,99882.38
2023-06-19T06:15:57.048Z,99894.69
2023-06-19T06:20:53.881Z,99895.94
2023-06-19T06:25:50.586Z,99890.13
2023-06-19T06:30:47.027Z,99903.25
2023-06-19T06:35:43.487Z,99900.50
2023-06-19T06:40:39.995Z,99903.19
2023-06-19T06:45:38.657Z,99914.25
2023-06-19T06:50:35.433Z,99923.88
2023-06-19T06:55:31.856Z,99926.78
2023-06-19T07:00:28.812Z,99931.34
2023-06-19T07:05:25.329Z,99938.06
2023-06-19T07:10:22.144Z,99931.78
2023-06-19T07:15:18.784Z,99919.34
2023-06-19T07:20:16.121Z,99939.78
2023-06-19T07:25:13.237Z,99942.09
2023-06-19T07:30:10.239Z,99933.06
2023-06-19T07:35:08.498Z,99949.94
2023-06-19T07:40:05.460Z,99954.66
2023-06-19T07:45:02.197Z,99953.56
2023-06-19T07:49:58.638Z,99954.81
2023-06-19T07:54:57.708Z,99951.44
2023-06-19T07:59:55.830Z,99952.94
2023-06-19T08:04:52.380Z,99957.69
2023-06-19T08:09:54.385Z,99966.66
2023-06-19T08:15:01.013Z,99964.19
2023-06-19T08:19:57.472Z,99975.25
2023-06-19T08:24:53.948Z,99979.03
2023-06-19T08:29:50.401Z,99979.44
2023-06-19T08:34:46.898Z,99985.53
2023-06-19T08:39:43.450Z,99987.34
2023-06-19T08:44:39.902Z,99995.50
2023-06-19T08:49:36.971Z,99997.38
2023-06-19T08:54:33.893Z,100003.94
2023-06-19T08:59:32.888Z,100009.47
2023-06-19T09:04:29.849Z,100022.84
2023-06-19T09:09:27.947Z,100027.00
2023-06-19T09:14:40.697Z,100037.00
2023-06-19T09:19:37.294Z,100036.63
2023-06-19T09:24:41.532Z,100023.09
2023-06-19T09:29:41.922Z,100037.22
2023-06-19T09:34:38.365Z,100035.31
2023-06-19T09:39:38.337Z,100032.00
2023-06-19T09:44:46.291Z,100043.91
2023-06-19T09:49:46.561Z,100042.03
2023-06-19T09:54:44.839Z,100037.84
2023-06-19T09:59:45.367Z,100054.56
2023-06-19T10:04:56.431Z,100057.66
2023-06-19T10:10:01.333Z,100053.75
2023-06-19T10:14:57.765Z,100063.34
2023-06-19T10:19:54.282Z,100051.25
2023-06-19T10:24:51.754Z,100060.63
2023-06-19T10:30:01.800Z,100057.47
2023-06-19T10:35:15.367Z,100065.63
2023-06-19T10:40:13.605Z,100066.06
2023-06-19T10:45:13.566Z,100071.72
2023-06-19T10:50:19.600Z,100062.91
2023-06-19T10:55:16.769Z,100061.81
2023-06-19T11:00:27.077Z,100058.09
2023-06-19T11:05:25.412Z,100061.44
2023-06-19T11:10:24.181Z,100063.13
2023-06-19T11:15:20.813Z,100072.81
2023-06-19T11:20:17.639Z,100070.09
2023-06-19T11:25:14.564Z,100070.00
2023-06-19T11:30:11.227Z,100068.25
2023-06-19T11:35:10.122Z,100067.00
2023-06-19T11:40:13.958Z,100076.63
2023-06-19T11:45:11.241Z,100079.19
2023-06-19T11:50:08.803Z,100082.66
2023-06-19T11:55:06.303Z,100071.00
2023-06-19T12:00:05.070Z,100076.13
2023-06-19T12:05:01.524Z,100072.75
2023-06-19T12:09:57.958Z,100061.47
2023-06-19T12:14:54.607Z,100054.31
2023-06-19T12:19:51.411Z,100055.31
2023-06-19T12:24:48.190Z,100057.13
2023-06-19T12:29:44.691Z,100059.91
2023-06-19T12:34:41.494Z,100040.72
2023-06-19T12:39:37.979Z,100056.75
2023-06-19T12:44:34.505Z,100041.59
2023-06-19T12:49:30.913Z,100051.94
2023-06-19T12:54:28.243Z,100048.00
2023-06-19T12:59:24.755Z,100051.53
2023-06-19T13:04:21.612Z,100041.59
2023-06-19T13:09:18.192Z,100053.44
2023-06-19T13:14:14.646Z,100048.41
2023-06-19T13:19:11.122Z,100049.94
2023-06-19T13:24:07.909Z,100046.56
2023-06-19T13:29:04.395Z,100044.91
2023-06-19T13:34:00.852Z,100043.59
2023-06-19T13:38:57.547Z,100041.53
2023-06-19T13:43:54.998Z,100042.81
2023-06-19T13:48:52.871Z,100043.31
2023-06-19T13:53:50.777Z,100033.69
2023-06-19T13:58:47.865Z,100041.84
2023-06-19T14:03:44.438Z,100043.44
2023-06-19T14:08:41.118Z,100044.41
2023-06-19T14:13:38.004Z,100036.22
2023-06-19T14:18:34.954Z,100044.69
2023-06-19T14:23:32.162Z,100045.34
2023-06-19T14:28:28.648Z,100039.78
2023-06-19T14:33:25.112Z,100036.75
2023-06-19T14:38:21.661Z,100034.06
2023-06-19T14:43:18.169Z,100029.44
2023-06-19T14:48:14.955Z,100025.09
2023-06-19T14:53:11.926Z,100022.13
2023-06-19T14:58:08.343Z,100034.34
2023-06-19T15:03:08.245Z,100033.72
2023-06-19T15:08:06.419Z,100041.44
2023-06-19T15:13:02.901Z,100043.91
2023-06-19T15:17:59.407Z,100038.72
2023-06-19T15:22:56.041Z,100034.69
2023-06-19T15:27:52.449Z,100031.38
2023-06-19T15:32:48.907Z,100023.72
2023-06-19T15:37:45.476Z,100027.06
2023-06-19T15:42:41.955Z,100024.41
2023-06-19T15:47:38.500Z,100014.44
2023-06-19T15:52:34.922Z,100017.03
2023-06-19T15:57:32.309Z,100011.41
2023-06-19T16:02:29.036Z,100013.03
2023-06-19T16:07:25.585Z,100015.44
2023-06-19T16:12:22.113Z,100003.16
2023-06-19T16:17:18.570Z,99997.50
2023-06-19T16:22:15.374Z,99993.59
2023-06-19T16:27:11.982Z,99992.84
2023-06-19T16:32:10.600Z,99983.47
2023-06-19T16:37:08.089Z,99985.72
2023-06-19T16:42:04.630Z,99978.00
2023-06-19T16:47:01.153Z,99978.28
2023-06-19T16:51:57.714Z,99990.50
2023-06-19T16:56:54.139Z,99984.09
2023-06-19T17:01:50.971Z,99981.69
2023-06-19T17:06:47.563Z,99990.44
2023-06-19T17:11:44.075Z,99995.69
2023-06-19T17:16:43.426Z,99996.31
2023-06-19T17:21:39.994Z,99984.13
2023-06-19T17:26:36.413Z,99998.72
2023-06-19T17:31:32.863Z,100003.72
2023-06-19T17:36:29.479Z,99990.50
2023-06-19T17:41:26.400Z,99988.34
2023-06-19T17:46:23.044Z,99992.75
2023-06-19T17:51:20.121Z,99993.31
2023-06-19T17:56:18.192Z,99997.34
2023-06-19T18:01:14.936Z,100002.69
2023-06-19T18:06:11.366Z,100007.69
2023-06-19T18:11:07.807Z,100012.78
2023-06-19T18:16:12.115Z,100013.88
2023-06-19T18:21:09.323Z,100024.56
2023-06-19T18:26:05.750Z,100023.59
2023-06-19T18:31:02.312Z,100020.38
2023-06-19T18:35:58.777Z,100024.41
2023-06-19T18:40:55.361Z,100021.97
2023-06-19T18:45:51.814Z,100025.88
2023-06-19T18:50:48.854Z,100031.50
2023-06-19T18:55:45.577Z,100030.16
2023-06-19T19:00:42.143Z,100027.34
2023-06-19T19:05:40.045Z,100027.53
2023-06-19T19:10:36.470Z,100031.09
2023-06-19T19:15:33.032Z,100034.44
2023-06-19T19:20:29.867Z,100030.00
2023-06-19T19:25:26.359Z,100036.06
2023-06-19T19:30:23.171Z,100044.31
2023-06-19T19:35:19.830Z,100052.94
2023-06-19T19:40:16.247Z,100060.94
2023-06-19T19:45:12.670Z,100062.88
2023-06-19T19:50:11.536Z,100065.03
2023-06-19T19:55:09.032Z,100073.75
2023-06-19T20:00:06.846Z,100080.38
2023-06-19T20:05:03.351Z,100081.91
2023-06-19T20:09:59.784Z,100086.22
2023-06-19T20:14:57.315Z,100088.69
2023-06-19T20:19:53.754Z,100081.22
2023-06-19T20:24:50.173Z,100083.88
2023-06-19T20:29:46.591Z,100082.41
2023-06-19T20:34:43.044Z,100087.69
2023-06-19T20:39:39.530Z,100087.13
2023-06-19T20:44:39.154Z,100088.25
2023-06-19T20:49:35.571Z,100082.69
2023-06-19T20:54:31.989Z,100084.97
2023-06-19T20:59:28.400Z,100098.31
2023-06-19T21:04:25.538Z,100091.50
2023-06-19T21:09:23.070Z,100090.97
2023-06-19T21:14:19.633Z,100088.97
2023-06-19T21:19:16.187Z,100086.94
2023-06-19T21:24:13.163Z,100097.13
2023-06-19T21:29:09.627Z,100100.66
2023-06-19T21:34:06.060Z,100087.78
2023-06-19T21:39:02.494Z,100102.22
2023-06-19T21:43:59.651Z,100102.44
2023-06-19T21:48:56.168Z,100102.16
2023-06-19T21:53:52.609Z,100095.63
2023-06-19T21:58:49.095Z,100089.00
2023-06-19T22:03:45.745Z,100082.59
2023-06-19T22:08:43.339Z,100070.19
2023-06-19T22:13:41.004Z,100078.66
2023-06-19T22:18:37.616Z,100075.13
2023-06-19T22:23:34.123Z,100068.50
2023-06-19T22:28:30.566Z,100066.41
2023-06-19T22:33:27.067Z,100061.06
2023-06-19T22:38:23.478Z,100063.03
2023-06-19T22:43:20.178Z,100059.03
2023-06-19T22:48:19.294Z,100052.63
2023-06-19T22:53:15.952Z,100060.53
2023-06-19T22:58:12.368Z,100061.75
2023-06-19T23:03:09.306Z,100052.16
2023-06-19T23:08:05.854Z,100058.66
2023-06-19T23:13:02.318Z,100056.16
2023-06-19T23:17:58.917Z,100057.09
2023-06-19T23:22:55.571Z,100049.72
2023-06-19T23:27:52.000Z,100054.94
2023-06-19T23:32:48.478Z,100053.78
2023-06-19T23:37:44.957Z,100049.13
2023-06-19T23:42:41.377Z,100062.81
2023-06-19T23:47:37.854Z,100062.34
2023-06-19T23:52:42.846Z,100062.56
2023-06-19T23:57:41.219Z,100059.47
